createdAt,value
2022-10-16T00:01:40.376Z,57.06
2022-10-16T00:04:09.129Z,57.23
2022-10-16T00:06:37.514Z,57.37
2022-10-16T00:09:07.621Z,57.52
2022-10-16T00:11:38.938Z,57.48
2022-10-16T00:14:12.042Z,57.78
2022-10-16T00:16:40.818Z,57.75
2022-10-16T00:19:09.052Z,57.63
2022-10-16T00:21:37.300Z,57.69
2022-10-16T00:24:25.667Z,58.01
2022-10-16T00:26:53.903Z,58.42
2022-10-16T00:29:22.385Z,57.96
2022-10-16T00:31:50.781Z,57.69
2022-10-16T00:34:18.954Z,57.51
2022-10-16T00:36:47.543Z,57.42
2022-10-16T00:39:15.922Z,57.46
2022-10-16T00:41:45.431Z,57.40
2022-10-16T00:44:50.762Z,57.47
2022-10-16T00:47:24.728Z,58.41
2022-10-16T00:49:57.969Z,57.59
2022-10-16T00:52:27.134Z,57.65
2022-10-16T00:54:56.965Z,57.88
2022-10-16T00:57:27.317Z,58.37
2022-10-16T01:02:24.334Z,57.89
2022-10-16T01:04:55.295Z,57.60
2022-10-16T01:07:36.047Z,57.43
2022-10-16T01:10:11.930Z,57.62
2022-10-16T01:12:47.992Z,57.75
2022-10-16T01:15:23.098Z,57.57
2022-10-16T01:17:59.058Z,57.37
2022-10-16T01:20:31.753Z,57.39
2022-10-16T01:23:09.737Z,57.63
2022-10-16T01:25:57.934Z,57.89
2022-10-16T01:28:33.170Z,58.20
2022-10-16T01:31:02.729Z,58.00
2022-10-16T01:33:38.386Z,58.07
2022-10-16T01:36:13.773Z,58.04
2022-10-16T01:38:43.384Z,57.93
2022-10-16T01:41:15.250Z,57.56
2022-10-16T01:43:49.664Z,57.71
2022-10-16T01:46:20.917Z,57.59
2022-10-16T01:48:50.587Z,57.59
2022-10-16T01:51:20.448Z,57.64
2022-10-16T01:53:54.258Z,57.94
2022-10-16T01:56:25.098Z,58.24
2022-10-16T01:58:57.688Z,58.35
2022-10-16T02:01:29.188Z,58.67
2022-10-16T02:04:01.046Z,58.11
2022-10-16T02:06:30.606Z,58.36
2022-10-16T02:08:59.146Z,58.34
2022-10-16T02:11:27.631Z,58.24
2022-10-16T02:14:03.471Z,58.17
2022-10-16T02:16:36.538Z,58.95
2022-10-16T02:19:05.504Z,58.81
2022-10-16T02:21:42.801Z,58.32
2022-10-16T02:24:20.125Z,59.04
2022-10-16T02:26:54.321Z,58.92
2022-10-16T02:29:27.496Z,58.71
2022-10-16T02:32:00.386Z,58.79
2022-10-16T02:34:32.251Z,58.55
2022-10-16T02:37:02.252Z,58.84
2022-10-16T02:39:31.798Z,58.78
2022-10-16T02:41:59.959Z,58.79
2022-10-16T02:44:29.717Z,59.01
2022-10-16T02:46:57.858Z,59.35
2022-10-16T02:49:26.022Z,59.33
2022-10-16T02:51:54.479Z,59.38
2022-10-16T02:54:22.601Z,59.46
2022-10-16T02:56:50.794Z,59.61
2022-10-16T02:59:19.345Z,59.54
2022-10-16T03:01:48.776Z,59.37
2022-10-16T03:04:16.870Z,59.55
2022-10-16T03:06:45.276Z,59.39
2022-10-16T03:09:13.373Z,59.04
2022-10-16T03:11:41.492Z,58.80
2022-10-16T03:14:09.978Z,58.96
2022-10-16T03:16:38.116Z,58.97
2022-10-16T03:19:07.662Z,58.91
2022-10-16T03:21:36.258Z,58.93
2022-10-16T03:24:04.664Z,58.89
2022-10-16T03:26:32.741Z,58.80
2022-10-16T03:29:01.195Z,58.69
2022-10-16T03:31:29.325Z,58.76
2022-10-16T03:33:57.878Z,58.76
2022-10-16T03:36:27.598Z,58.72
2022-10-16T03:38:55.830Z,58.74
2022-10-16T03:41:24.062Z,58.79
2022-10-16T03:43:52.596Z,58.70
2022-10-16T03:46:20.772Z,58.77
2022-10-16T03:48:48.887Z,58.72
2022-10-16T03:51:17.353Z,58.62
2022-10-16T03:53:46.865Z,58.50
2022-10-16T03:56:15.041Z,58.52
2022-10-16T03:58:43.577Z,58.47
2022-10-16T04:01:11.821Z,58.60
2022-10-16T04:03:40.315Z,58.43
2022-10-16T04:06:08.441Z,58.82
2022-10-16T04:08:37.607Z,58.91
2022-10-16T04:11:07.830Z,58.90
2022-10-16T04:13:35.987Z,58.85
2022-10-16T04:16:04.189Z,58.85
2022-10-16T04:18:32.663Z,58.93
2022-10-16T04:21:04.963Z,58.87
2022-10-16T04:23:33.836Z,58.91
2022-10-16T04:26:02.166Z,58.87
2022-10-16T04:28:31.756Z,59.28
2022-10-16T04:31:00.211Z,59.71
2022-10-16T04:33:28.257Z,59.60
2022-10-16T04:36:00.271Z,59.45
2022-10-16T04:38:29.362Z,59.96
2022-10-16T04:40:57.758Z,59.60
2022-10-16T04:43:26.176Z,59.49
2022-10-16T04:45:56.030Z,59.88
2022-10-16T04:48:24.634Z,60.22
2022-10-16T04:50:55.143Z,60.01
2022-10-16T04:53:24.335Z,59.92
2022-10-16T04:55:52.624Z,59.82
2022-10-16T04:58:20.832Z,59.62
2022-10-16T05:00:49.288Z,59.51
2022-10-16T05:03:18.905Z,59.40
2022-10-16T05:05:48.297Z,59.39
2022-10-16T05:08:17.537Z,59.18
2022-10-16T05:10:46.713Z,59.27
2022-10-16T05:13:14.926Z,59.15
2022-10-16T05:15:43.421Z,59.32
2022-10-16T05:18:11.586Z,59.29
2022-10-16T05:20:41.047Z,59.41
2022-10-16T05:23:11.212Z,59.31
2022-10-16T05:25:39.678Z,59.33
2022-10-16T05:28:07.789Z,59.52
2022-10-16T05:30:36.486Z,59.52
2022-10-16T05:33:04.750Z,59.46
2022-10-16T05:35:32.941Z,59.31
2022-10-16T05:38:02.662Z,59.48
2022-10-16T05:40:30.739Z,59.77
2022-10-16T05:42:58.915Z,59.52
2022-10-16T05:45:27.470Z,59.48
2022-10-16T05:47:55.592Z,59.63
2022-10-16T05:50:23.726Z,59.63
2022-10-16T05:52:52.175Z,59.61
2022-10-16T05:55:21.744Z,59.63
2022-10-16T05:57:49.925Z,59.51
2022-10-16T06:00:18.413Z,59.68
2022-10-16T06:02:47.011Z,59.43
2022-10-16T06:05:15.458Z,59.25
2022-10-16T06:07:43.687Z,59.28
2022-10-16T06:10:12.066Z,59.37
2022-10-16T06:12:41.571Z,59.54
2022-10-16T06:15:10.637Z,59.45
2022-10-16T06:17:40.814Z,59.50
2022-10-16T06:20:23.332Z,59.32
2022-10-16T06:22:52.090Z,59.38
2022-10-16T06:25:20.392Z,59.55
2022-10-16T06:28:00.557Z,59.39
2022-10-16T06:30:29.974Z,59.34
2022-10-16T06:32:58.180Z,59.24
2022-10-16T06:35:26.377Z,59.16
2022-10-16T06:37:55.253Z,59.47
2022-10-16T06:40:23.560Z,59.36
2022-10-16T06:42:53.386Z,59.38
2022-10-16T06:45:22.281Z,59.37
2022-10-16T06:47:50.379Z,59.26
2022-10-16T06:50:19.043Z,59.19
2022-10-16T06:52:47.527Z,59.39
2022-10-16T06:55:16.226Z,59.34
2022-10-16T06:57:44.910Z,59.58
2022-10-16T07:00:15.364Z,59.26
2022-10-16T07:02:43.541Z,59.21
2022-10-16T07:05:11.613Z,59.27
2022-10-16T07:07:42.926Z,59.01
2022-10-16T07:10:11.107Z,59.00
2022-10-16T07:12:39.523Z,59.07
2022-10-16T07:15:08.658Z,58.91
2022-10-16T07:17:38.353Z,58.94
2022-10-16T07:20:08.167Z,59.18
2022-10-16T07:22:36.756Z,59.21
2022-10-16T07:25:06.046Z,58.89
2022-10-16T07:27:35.164Z,58.93
2022-10-16T07:30:06.484Z,58.83
2022-10-16T07:32:38.766Z,59.35
2022-10-16T07:35:08.177Z,59.24
2022-10-16T07:37:39.631Z,58.83
2022-10-16T07:40:23.117Z,58.60
2022-10-16T07:42:59.749Z,58.69
2022-10-16T07:45:28.010Z,59.07
2022-10-16T07:47:58.250Z,59.18
2022-10-16T07:50:26.512Z,58.86
2022-10-16T07:52:54.672Z,58.82
2022-10-16T07:55:23.175Z,58.89
2022-10-16T07:57:51.586Z,58.67
2022-10-16T08:00:20.107Z,58.81
2022-10-16T08:02:48.543Z,58.67
2022-10-16T08:05:18.291Z,58.32
2022-10-16T08:07:50.621Z,58.37
2022-10-16T08:10:20.637Z,58.11
2022-10-16T08:12:48.923Z,58.12
2022-10-16T08:15:17.409Z,58.20
2022-10-16T08:17:46.100Z,57.93
2022-10-16T08:20:14.313Z,57.79
2022-10-16T08:22:43.994Z,57.86
2022-10-16T08:25:12.669Z,57.89
2022-10-16T08:27:40.878Z,57.88
2022-10-16T08:30:10.887Z,57.64
2022-10-16T08:32:39.475Z,57.54
2022-10-16T08:35:08.094Z,57.59
2022-10-16T08:37:36.449Z,57.55
2022-10-16T08:40:08.835Z,57.04
2022-10-16T08:42:49.794Z,56.84
2022-10-16T08:45:32.849Z,56.53
2022-10-16T08:48:12.863Z,56.37
2022-10-16T08:50:42.806Z,56.36
2022-10-16T08:53:18.646Z,56.92
2022-10-16T08:55:52.362Z,56.49
2022-10-16T08:58:22.474Z,56.44
2022-10-16T09:00:55.201Z,56.75
2022-10-16T09:03:35.701Z,56.68
2022-10-16T09:06:19.588Z,56.26
2022-10-16T09:09:00.766Z,55.75
2022-10-16T09:11:46.607Z,55.24
2022-10-16T09:14:37.505Z,55.23
2022-10-16T09:17:22.070Z,54.88
2022-10-16T09:19:55.145Z,54.72
2022-10-16T09:22:28.879Z,55.53
2022-10-16T09:25:01.431Z,55.10
2022-10-16T09:27:31.347Z,55.50
2022-10-16T09:30:00.279Z,54.22
2022-10-16T09:32:30.781Z,54.28
2022-10-16T09:34:59.478Z,53.61
2022-10-16T09:37:28.483Z,54.33
2022-10-16T09:39:57.809Z,53.98
2022-10-16T09:42:32.413Z,52.96
2022-10-16T09:45:02.007Z,52.39
2022-10-16T09:47:32.454Z,53.49
2022-10-16T09:50:03.192Z,52.47
2022-10-16T09:52:32.933Z,52.73
2022-10-16T09:55:02.846Z,51.58
2022-10-16T09:57:32.026Z,53.24
2022-10-16T10:00:02.049Z,52.62
2022-10-16T10:02:36.984Z,52.95
2022-10-16T10:05:08.018Z,52.21
2022-10-16T10:07:45.098Z,51.77
2022-10-16T10:10:22.588Z,50.23
2022-10-16T10:12:55.610Z,49.44
2022-10-16T10:15:27.812Z,51.93
2022-10-16T10:17:57.471Z,51.32
2022-10-16T10:20:28.614Z,52.10
2022-10-16T10:22:57.718Z,50.92
2022-10-16T10:25:44.754Z,51.52
2022-10-16T10:28:52.434Z,49.81
2022-10-16T10:31:29.718Z,49.29
2022-10-16T10:34:07.189Z,49.28
2022-10-16T10:36:38.867Z,50.76
2022-10-16T10:39:14.051Z,50.20
2022-10-16T10:42:09.444Z,50.90
2022-10-16T10:45:04.998Z,49.23
2022-10-16T10:47:47.506Z,48.95
2022-10-16T10:50:24.993Z,48.65
2022-10-16T10:53:02.798Z,50.46
2022-10-16T10:55:41.697Z,50.37
2022-10-16T10:58:35.123Z,50.15
2022-10-16T11:01:10.521Z,49.33
2022-10-16T11:06:59.454Z,48.82
2022-10-16T11:09:36.754Z,50.82
2022-10-16T11:12:13.440Z,50.87
2022-10-16T11:14:48.492Z,50.11
2022-10-16T11:17:24.039Z,50.60
2022-10-16T11:20:00.682Z,49.68
2022-10-16T11:22:35.422Z,49.79
2022-10-16T11:25:15.244Z,49.93
2022-10-16T11:27:47.348Z,50.25
2022-10-16T11:30:20.809Z,50.77
2022-10-16T11:33:02.853Z,50.23
2022-10-16T11:35:42.975Z,49.33
2022-10-16T11:38:17.708Z,49.73
2022-10-16T11:40:50.174Z,50.62
2022-10-16T11:43:24.069Z,50.73
2022-10-16T11:45:55.960Z,50.43
2022-10-16T11:48:32.325Z,50.10
2022-10-16T11:51:11.375Z,50.26
2022-10-16T11:53:48.005Z,49.97
2022-10-16T11:56:18.950Z,50.25
2022-10-16T11:58:57.385Z,50.68
2022-10-16T12:01:34.814Z,50.15
2022-10-16T12:04:22.597Z,49.47
2022-10-16T12:06:58.552Z,49.06
2022-10-16T12:09:29.580Z,49.66
2022-10-16T12:11:58.074Z,50.31
2022-10-16T12:14:57.290Z,50.34
2022-10-16T12:17:29.127Z,49.34
2022-10-16T12:20:02.891Z,50.34
2022-10-16T12:22:38.022Z,49.99
2022-10-16T12:25:21.298Z,50.34
2022-10-16T12:27:57.035Z,50.45
2022-10-16T12:30:29.978Z,50.06
2022-10-16T12:33:03.422Z,50.64
2022-10-16T12:35:38.844Z,50.57
2022-10-16T12:40:46.807Z,50.46
2022-10-16T12:43:29.801Z,50.50
2022-10-16T12:46:04.754Z,49.40
2022-10-16T12:48:48.173Z,49.06
2022-10-16T12:51:28.117Z,49.86
2022-10-16T12:54:06.236Z,48.56
2022-10-16T12:56:47.913Z,48.29
2022-10-16T12:59:28.897Z,48.97
2022-10-16T13:02:17.949Z,47.80
2022-10-16T13:04:59.470Z,48.46
2022-10-16T13:07:43.781Z,48.02
2022-10-16T13:10:24.577Z,47.89
2022-10-16T13:13:19.048Z,48.10
2022-10-16T13:16:03.584Z,46.40
2022-10-16T13:18:46.083Z,46.46
2022-10-16T13:21:27.073Z,47.55
2022-10-16T13:24:04.837Z,47.49
2022-10-16T13:26:44.911Z,46.77
2022-10-16T13:29:17.278Z,46.90
2022-10-16T13:31:46.370Z,47.83
2022-10-16T13:34:17.960Z,47.03
2022-10-16T13:36:48.561Z,47.22
2022-10-16T13:39:22.801Z,46.48
2022-10-16T13:42:08.085Z,46.75
2022-10-16T13:44:42.789Z,45.72
2022-10-16T13:47:19.481Z,47.19
2022-10-16T13:49:48.690Z,46.44
2022-10-16T13:52:22.576Z,47.58
2022-10-16T13:54:50.974Z,46.82
2022-10-16T13:57:27.254Z,47.55
2022-10-16T13:59:56.468Z,46.95
2022-10-16T14:02:28.922Z,47.34
2022-10-16T14:04:59.659Z,47.18
2022-10-16T14:07:30.775Z,47.58
2022-10-16T14:10:03.134Z,47.35
2022-10-16T14:12:33.512Z,47.38
2022-10-16T14:15:03.021Z,47.42
2022-10-16T14:17:34.460Z,47.53
2022-10-16T14:20:07.691Z,47.47
2022-10-16T14:22:38.488Z,47.31
2022-10-16T14:25:27.574Z,47.50
2022-10-16T14:30:35.990Z,47.08
2022-10-16T14:33:06.436Z,47.34
2022-10-16T14:35:37.444Z,47.35
2022-10-16T14:38:07.713Z,46.90
2022-10-16T14:40:39.024Z,47.20
2022-10-16T14:43:08.890Z,47.42
2022-10-16T14:45:37.739Z,47.56
2022-10-16T14:48:19.555Z,47.41
2022-10-16T14:50:48.628Z,47.40
2022-10-16T14:53:17.229Z,47.35
2022-10-16T14:55:45.930Z,47.39
2022-10-16T14:58:18.794Z,47.13
2022-10-16T15:00:47.696Z,46.95
2022-10-16T15:03:16.298Z,47.30
2022-10-16T15:05:44.469Z,47.36
2022-10-16T15:08:13.443Z,47.43
2022-10-16T15:10:44.680Z,47.46
2022-10-16T15:13:14.828Z,47.44
2022-10-16T15:15:46.995Z,47.43
2022-10-16T15:18:20.838Z,47.05
2022-10-16T15:20:51.237Z,47.47
2022-10-16T15:23:21.219Z,47.61
2022-10-16T15:25:51.692Z,47.71
2022-10-16T15:28:20.758Z,47.71
2022-10-16T15:30:52.447Z,47.67
2022-10-16T15:33:23.910Z,47.64
2022-10-16T15:35:53.719Z,47.71
2022-10-16T15:38:23.841Z,47.81
2022-10-16T15:40:52.634Z,47.82
2022-10-16T15:43:20.712Z,47.80
2022-10-16T15:46:01.455Z,47.87
2022-10-16T15:48:29.894Z,47.74
2022-10-16T15:50:58.229Z,47.96
2022-10-16T15:53:26.431Z,48.01
2022-10-16T15:55:54.503Z,48.10
2022-10-16T15:58:23.016Z,48.14
2022-10-16T16:00:58.137Z,48.24
2022-10-16T16:03:26.527Z,48.28
2022-10-16T16:05:54.799Z,48.31
2022-10-16T16:08:22.984Z,48.40
2022-10-16T16:11:00.171Z,48.53
2022-10-16T16:13:28.336Z,48.57
2022-10-16T16:15:58.648Z,48.64
2022-10-16T16:18:26.965Z,48.67
2022-10-16T16:20:55.714Z,48.72
2022-10-16T16:23:24.303Z,48.73
2022-10-16T16:26:06.905Z,48.79
2022-10-16T16:28:35.679Z,48.92
2022-10-16T16:31:05.486Z,49.00
2022-10-16T16:33:34.427Z,49.13
2022-10-16T16:36:05.212Z,49.13
2022-10-16T16:38:34.764Z,49.18
2022-10-16T16:41:13.687Z,49.24
2022-10-16T16:43:41.904Z,49.49
2022-10-16T16:46:11.938Z,49.44
2022-10-16T16:48:40.625Z,49.71
2022-10-16T16:51:10.127Z,49.73
2022-10-16T16:53:38.746Z,49.90
2022-10-16T16:56:07.931Z,50.18
2022-10-16T16:58:36.809Z,50.36
2022-10-16T17:01:19.528Z,50.44
2022-10-16T17:03:52.702Z,50.44
2022-10-16T17:06:22.397Z,50.75
2022-10-16T17:08:51.673Z,50.88
2022-10-16T17:11:21.861Z,51.05
2022-10-16T17:13:53.996Z,51.35
2022-10-16T17:16:27.144Z,51.39
2022-10-16T17:18:57.204Z,51.41
2022-10-16T17:21:26.848Z,51.33
2022-10-16T17:23:55.039Z,51.28
2022-10-16T17:26:23.460Z,51.16
2022-10-16T17:28:54.241Z,51.11
2022-10-16T17:31:24.597Z,51.32
2022-10-16T17:33:53.112Z,51.33
2022-10-16T17:36:23.857Z,51.47
2022-10-16T17:38:52.671Z,51.42
2022-10-16T17:41:23.980Z,51.52
2022-10-16T17:43:55.342Z,51.54
2022-10-16T17:46:24.879Z,51.58
2022-10-16T17:48:56.031Z,51.60
2022-10-16T17:51:30.594Z,51.63
2022-10-16T17:54:01.169Z,51.67
2022-10-16T17:56:31.067Z,51.98
2022-10-16T17:59:01.962Z,51.95
2022-10-16T18:01:32.844Z,51.96
2022-10-16T18:04:04.696Z,52.00
2022-10-16T18:06:34.731Z,52.04
2022-10-16T18:09:05.465Z,52.51
2022-10-16T18:11:33.629Z,52.58
2022-10-16T18:14:02.802Z,52.52
2022-10-16T18:16:34.480Z,52.41
2022-10-16T18:19:03.296Z,52.29
2022-10-16T18:21:32.077Z,52.10
2022-10-16T18:24:01.753Z,52.10
2022-10-16T18:26:30.084Z,52.12
2022-10-16T18:29:00.709Z,52.18
2022-10-16T18:31:29.300Z,52.28
2022-10-16T18:33:58.634Z,52.36
2022-10-16T18:36:30.697Z,52.53
2022-10-16T18:39:01.543Z,52.52
2022-10-16T18:41:32.687Z,52.46
2022-10-16T18:44:00.917Z,52.58
2022-10-16T18:46:30.101Z,52.71
2022-10-16T18:49:00.451Z,52.70
2022-10-16T18:51:30.813Z,52.97
2022-10-16T18:54:02.694Z,53.16
2022-10-16T18:56:32.998Z,53.56
2022-10-16T18:59:03.349Z,53.55
2022-10-16T19:01:33.175Z,53.38
2022-10-16T19:04:03.541Z,53.36
2022-10-16T19:06:34.364Z,53.31
2022-10-16T19:09:05.147Z,53.38
2022-10-16T19:11:36.794Z,53.67
2022-10-16T19:14:09.264Z,53.58
2022-10-16T19:16:38.149Z,53.51
2022-10-16T19:19:08.028Z,53.50
2022-10-16T19:21:39.873Z,53.61
2022-10-16T19:24:12.393Z,53.71
2022-10-16T19:26:42.102Z,53.87
2022-10-16T19:29:11.211Z,54.10
2022-10-16T19:31:39.796Z,53.91
2022-10-16T19:34:09.782Z,54.52
2022-10-16T19:36:39.602Z,54.43
2022-10-16T19:39:15.093Z,54.56
2022-10-16T19:41:44.240Z,55.47
2022-10-16T19:44:15.378Z,55.14
2022-10-16T19:46:49.869Z,55.11
2022-10-16T19:49:21.986Z,55.05
2022-10-16T19:51:59.269Z,55.17
2022-10-16T19:54:32.224Z,55.21
2022-10-16T19:57:06.522Z,55.63
2022-10-16T19:59:59.941Z,55.44
2022-10-16T20:02:30.423Z,55.13
2022-10-16T20:05:04.235Z,55.25
2022-10-16T20:07:34.994Z,55.53
2022-10-16T20:10:06.199Z,55.47
2022-10-16T20:12:34.346Z,55.33
2022-10-16T20:15:05.939Z,55.11
2022-10-16T20:17:37.496Z,55.24
2022-10-16T20:20:12.724Z,55.30
2022-10-16T20:23:04.603Z,55.17
2022-10-16T20:25:39.262Z,55.75
2022-10-16T20:28:29.509Z,55.50
2022-10-16T20:34:00.157Z,55.15
2022-10-16T20:36:30.643Z,55.04
2022-10-16T20:39:08.325Z,55.09
2022-10-16T20:41:41.759Z,56.06
2022-10-16T20:44:13.277Z,56.14
2022-10-16T20:50:16.542Z,55.66
2022-10-16T20:52:45.307Z,56.55
2022-10-16T20:55:16.161Z,56.51
2022-10-16T20:58:09.627Z,56.61
2022-10-16T21:00:40.726Z,56.48
2022-10-16T21:03:13.085Z,55.91
2022-10-16T21:05:44.937Z,55.80
2022-10-16T21:08:13.640Z,55.75
2022-10-16T21:10:45.389Z,55.64
2022-10-16T21:13:17.110Z,56.07
2022-10-16T21:15:47.000Z,56.37
2022-10-16T21:18:15.349Z,56.00
2022-10-16T21:20:49.056Z,55.85
2022-10-16T21:23:25.016Z,55.65
2022-10-16T21:25:55.558Z,55.55
2022-10-16T21:28:25.086Z,56.28
2022-10-16T21:30:58.759Z,56.64
2022-10-16T21:33:43.742Z,56.92
2022-10-16T21:36:15.623Z,56.97
2022-10-16T21:41:40.499Z,57.39
2022-10-16T21:44:10.423Z,57.75
2022-10-16T21:46:44.852Z,57.58
2022-10-16T21:49:30.656Z,57.64
2022-10-16T21:51:59.451Z,58.51
2022-10-16T21:54:28.410Z,57.39
2022-10-16T21:56:57.160Z,57.37
2022-10-16T21:59:26.098Z,57.08
2022-10-16T22:01:56.254Z,56.83
2022-10-16T22:04:25.587Z,57.00
2022-10-16T22:06:56.628Z,56.75
2022-10-16T22:09:35.603Z,56.71
2022-10-16T22:12:08.706Z,56.97
2022-10-16T22:14:44.555Z,57.20
2022-10-16T22:17:16.324Z,57.18
2022-10-16T22:19:56.929Z,56.89
2022-10-16T22:22:25.253Z,57.30
2022-10-16T22:24:54.668Z,57.22
2022-10-16T22:27:26.383Z,57.34
2022-10-16T22:29:55.427Z,57.30
2022-10-16T22:32:25.023Z,57.11
2022-10-16T22:34:53.232Z,57.45
2022-10-16T22:37:21.609Z,57.51
2022-10-16T22:39:49.795Z,57.48
2022-10-16T22:42:17.940Z,57.10
2022-10-16T22:44:46.410Z,56.75
2022-10-16T22:47:14.492Z,56.76
2022-10-16T22:49:44.120Z,57.12
2022-10-16T22:52:12.608Z,57.00
2022-10-16T22:54:40.799Z,56.96
2022-10-16T22:57:08.885Z,56.79
2022-10-16T22:59:37.318Z,56.96
2022-10-16T23:02:05.505Z,57.09
2022-10-16T23:04:33.754Z,57.25
2022-10-16T23:07:03.471Z,57.66
2022-10-16T23:09:31.580Z,57.72
2022-10-16T23:11:59.658Z,57.54
2022-10-16T23:14:28.075Z,57.44
2022-10-16T23:16:56.236Z,57.45
2022-10-16T23:19:24.746Z,57.50
2022-10-16T23:21:53.126Z,57.67
2022-10-16T23:24:23.067Z,57.87
2022-10-16T23:26:51.501Z,58.06
2022-10-16T23:29:20.100Z,58.41
2022-10-16T23:31:48.187Z,58.70
2022-10-16T23:34:16.364Z,58.61
2022-10-16T23:36:45.739Z,58.89
2022-10-16T23:39:14.405Z,59.02
2022-10-16T23:41:43.998Z,59.16
2022-10-16T23:44:12.529Z,59.24
2022-10-16T23:46:40.633Z,58.98
2022-10-16T23:49:09.019Z,59.13
2022-10-16T23:51:37.710Z,58.94
2022-10-16T23:54:05.857Z,59.13
2022-10-16T23:56:34.018Z,59.11
2022-10-16T23:59:03.794Z,59.26
